Time;durP1;ratioP1;P1;durP2;ratioP2;P2;SDS_P1;SDS_P2;PMS_P1;PMS_P2;Temp;Humidity;BMP_temperature;BMP_pressure;BME280_temperature;BME280_humidity;BME280_pressure;Samples;Min_cycle;Max_cycle;Signal;HPM_P1;HPM_P2
2022/12/18 00:02:44;;;;;;;70.22;45.33;;;-7.90;99.90;;;;;;4979187;28;20221;-74
2022/12/18 00:05:30;;;;;;;71.72;46.90;;;-7.70;99.90;;;;;;4986260;28;20684;-74
2022/12/18 00:08:16;;;;;;;68.95;47.97;;;-7.50;99.90;;;;;;4989160;28;20215;-75
2022/12/18 00:11:04;;;;;;;88.18;49.10;;;-7.40;99.90;;;;;;4982529;28;20229;-75
2022/12/18 00:13:52;;;;;;;70.97;47.53;;;-7.40;99.90;;;;;;4989943;28;20215;-74
2022/12/18 00:16:38;;;;;;;71.95;47.08;;;-7.40;99.90;;;;;;4994586;28;20203;-74
2022/12/18 00:19:24;;;;;;;66.80;45.33;;;-7.40;99.90;;;;;;4993128;28;20211;-76
2022/12/18 00:22:09;;;;;;;69.82;44.50;;;-7.50;99.90;;;;;;4985468;28;20223;-74
2022/12/18 00:24:55;;;;;;;85.35;47.30;;;-7.60;99.90;;;;;;4981032;28;20595;-74
2022/12/18 00:27:41;;;;;;;74.28;46.45;;;-7.80;99.90;;;;;;4989797;28;20223;-75
2022/12/18 00:30:28;;;;;;;79.53;47.47;;;-7.80;99.90;;;;;;4994295;28;20218;-76
2022/12/18 00:33:14;;;;;;;71.85;46.38;;;-7.70;99.90;;;;;;4989014;28;20203;-74
2022/12/18 00:36:02;;;;;;;70.82;45.50;;;-7.70;99.90;;;;;;4998361;28;20323;-74
2022/12/18 00:38:48;;;;;;;71.07;44.72;;;-7.80;99.90;;;;;;4990154;28;20606;-74
2022/12/18 00:44:38;;;;;;;66.55;43.25;;;-7.70;99.90;;;;;;4995179;28;20245;-74
2022/12/18 00:47:25;;;;;;;67.90;44.35;;;-7.70;99.90;;;;;;4991761;28;20199;-74
2022/12/18 00:50:11;;;;;;;65.03;42.22;;;-7.60;99.90;;;;;;4991224;28;20493;-75
2022/12/18 00:52:56;;;;;;;74.18;46.47;;;-7.60;99.90;;;;;;4984390;28;20250;-74
2022/12/18 00:55:43;;;;;;;57.97;41.15;;;-7.60;99.90;;;;;;4987259;28;20203;-75
2022/12/18 00:58:28;;;;;;;68.32;43.78;;;-7.60;99.90;;;;;;4983525;28;20331;-74
2022/12/18 01:01:14;;;;;;;74.82;45.88;;;-7.70;99.90;;;;;;4984527;28;20226;-75
2022/12/18 01:04:02;;;;;;;67.55;44.95;;;-7.60;99.90;;;;;;4998714;28;20205;-74
2022/12/18 01:06:48;;;;;;;65.05;43.40;;;-7.70;99.90;;;;;;4999887;28;20207;-75
2022/12/18 01:09:34;;;;;;;70.60;43.80;;;-7.70;99.90;;;;;;4991061;28;20315;-75
2022/12/18 01:12:20;;;;;;;80.63;48.15;;;-7.80;99.90;;;;;;4983344;28;20607;-74
2022/12/18 01:15:07;;;;;;;75.22;46.13;;;-7.70;99.90;;;;;;4988836;28;20215;-75
2022/12/18 01:17:53;;;;;;;77.55;47.75;;;-7.90;99.90;;;;;;4996180;28;20569;-74
2022/12/18 01:20:40;;;;;;;72.20;45.47;;;-8.10;99.90;;;;;;4990268;28;20230;-74
2022/12/18 01:23:28;;;;;;;73.68;45.20;;;-8.10;99.90;;;;;;4987150;28;20206;-75
2022/12/18 01:26:16;;;;;;;76.57;46.17;;;-8.00;99.90;;;;;;4990614;28;20223;-74
2022/12/18 01:29:01;;;;;;;75.03;46.80;;;-7.90;99.90;;;;;;4990780;28;20626;-74
2022/12/18 01:31:47;;;;;;;70.20;47.33;;;-7.90;99.90;;;;;;4984429;28;20254;-74
2022/12/18 01:34:32;;;;;;;70.22;45.53;;;-8.00;99.90;;;;;;4999957;28;20729;-74
2022/12/18 01:37:19;;;;;;;70.82;45.55;;;-8.00;99.90;;;;;;4992186;28;20265;-74
2022/12/18 01:40:06;;;;;;;72.40;46.15;;;-8.10;99.90;;;;;;5000020;28;20215;-74
2022/12/18 01:42:52;;;;;;;73.38;44.90;;;-8.10;99.90;;;;;;4988733;28;20584;-74
2022/12/18 01:45:38;;;;;;;81.70;47.45;;;-8.20;99.90;;;;;;4994609;28;20692;-74
2022/12/18 01:48:24;;;;;;;65.18;42.05;;;-8.30;99.90;;;;;;4992961;28;20215;-74
2022/12/18 01:51:11;;;;;;;74.68;46.05;;;-8.20;99.90;;;;;;4981628;28;20233;-75
2022/12/18 01:54:00;;;;;;;62.50;42.90;;;-8.30;99.90;;;;;;4990328;28;20202;-74
2022/12/18 01:56:46;;;;;;;71.88;43.97;;;-8.30;99.90;;;;;;4998943;28;20198;-75
2022/12/18 01:59:33;;;;;;;76.63;45.00;;;-8.20;99.90;;;;;;4990100;28;20215;-74
2022/12/18 02:02:19;;;;;;;75.15;44.08;;;-8.20;99.90;;;;;;4992055;28;20711;-74
2022/12/18 02:05:05;;;;;;;70.63;45.95;;;-8.30;99.90;;;;;;4996320;28;20676;-74
2022/12/18 02:08:00;;;;;;;67.28;43.90;;;-8.20;99.90;;;;;;4995385;28;20691;-75
2022/12/18 02:10:58;;;;;;;71.68;44.70;;;-8.30;99.90;;;;;;4987160;28;20303;-75
2022/12/18 02:13:51;;;;;;;63.53;42.53;;;-8.40;99.90;;;;;;4994578;28;20338;-75
2022/12/18 02:16:44;;;;;;;68.88;45.53;;;-8.40;99.90;;;;;;4989575;28;20203;-74
2022/12/18 02:19:55;;;;;;;73.97;43.55;;;-8.40;99.90;;;;;;4987797;28;20297;-75
2022/12/18 02:22:48;;;;;;;67.47;42.72;;;-8.40;99.90;;;;;;4989678;28;20203;-74
2022/12/18 02:26:08;;;;;;;69.50;43.17;;;-8.30;99.90;;;;;;4996305;28;20496;-74
2022/12/18 02:29:00;;;;;;;75.22;43.88;;;-8.30;99.90;;;;;;4988771;28;20241;-75
2022/12/18 02:31:55;;;;;;;74.35;43.13;;;-8.40;99.90;;;;;;4990454;28;20328;-75
2022/12/18 02:34:42;;;;;;;65.75;40.35;;;-8.40;99.90;;;;;;4983300;28;20207;-75
2022/12/18 02:37:28;;;;;;;70.45;42.80;;;-8.50;99.90;;;;;;4994685;28;20208;-74
2022/12/18 02:40:16;;;;;;;73.10;42.17;;;-8.50;99.90;;;;;;4989114;28;20214;-75
2022/12/18 02:43:09;;;;;;;66.38;41.30;;;-8.50;99.90;;;;;;4993064;28;20211;-74
2022/12/18 02:45:58;;;;;;;69.80;42.28;;;-8.60;99.90;;;;;;4983767;28;20223;-74
2022/12/18 02:48:44;;;;;;;72.55;43.15;;;-8.60;99.90;;;;;;4991301;28;20597;-74
2022/12/18 02:51:39;;;;;;;65.97;42.67;;;-8.60;99.90;;;;;;4983249;28;20329;-74
2022/12/18 02:54:37;;;;;;;68.63;41.78;;;-8.60;99.90;;;;;;4997472;28;20227;-75
2022/12/18 02:57:31;;;;;;;66.45;42.72;;;-8.50;99.90;;;;;;4997541;28;20266;-75
2022/12/18 03:00:20;;;;;;;67.55;43.97;;;-8.50;99.90;;;;;;4981984;28;20741;-74
2022/12/18 03:03:15;;;;;;;75.25;44.45;;;-8.50;99.90;;;;;;4989240;28;20214;-74
2022/12/18 03:06:06;;;;;;;70.15;44.45;;;-8.50;99.90;;;;;;4984864;28;20215;-74
2022/12/18 03:08:57;;;;;;;71.80;44.15;;;-8.50;99.90;;;;;;4985996;28;20246;-74
2022/12/18 03:14:55;;;;;;;70.88;40.92;;;-8.70;99.90;;;;;;4985268;28;20298;-74
2022/12/18 03:17:45;;;;;;;68.15;42.35;;;-8.60;99.90;;;;;;4992111;28;20219;-74
2022/12/18 03:20:35;;;;;;;65.70;41.47;;;-8.60;99.90;;;;;;4986500;28;20274;-74
2022/12/18 03:23:25;;;;;;;65.53;40.97;;;-8.60;99.90;;;;;;4988607;28;20199;-74
2022/12/18 03:26:13;;;;;;;76.53;44.97;;;-8.50;99.90;;;;;;4988054;28;20326;-74
2022/12/18 03:29:04;;;;;;;68.50;44.60;;;-8.50;99.90;;;;;;4990411;28;20214;-74
2022/12/18 03:31:55;;;;;;;77.72;48.67;;;-8.40;99.90;;;;;;4986944;28;20227;-75
2022/12/18 03:34:43;;;;;;;75.45;46.17;;;-8.50;99.90;;;;;;4985137;28;20248;-74
2022/12/18 03:37:34;;;;;;;73.82;46.13;;;-8.50;99.90;;;;;;4977376;28;20705;-76
2022/12/18 03:40:23;;;;;;;74.57;46.08;;;-8.40;99.90;;;;;;4986781;28;20357;-74
2022/12/18 03:43:17;;;;;;;71.35;43.00;;;-8.40;99.90;;;;;;4992692;28;20206;-74
2022/12/18 03:46:08;;;;;;;65.55;44.28;;;-8.40;99.90;;;;;;4993820;28;20703;-74
2022/12/18 03:49:00;;;;;;;83.95;49.20;;;-8.50;99.90;;;;;;4981539;28;20694;-74
2022/12/18 03:51:52;;;;;;;77.07;45.13;;;-8.60;99.90;;;;;;4985946;28;20239;-74
2022/12/18 03:54:41;;;;;;;75.45;46.05;;;-8.60;99.90;;;;;;4992672;28;20258;-75
2022/12/18 03:57:29;;;;;;;73.07;46.72;;;-8.70;99.90;;;;;;4989740;28;20223;-75
2022/12/18 04:00:18;;;;;;;76.18;45.90;;;-8.80;99.90;;;;;;4985746;28;20527;-75
2022/12/18 04:03:07;;;;;;;78.63;44.65;;;-8.90;99.90;;;;;;4997074;28;20202;-75
2022/12/18 04:05:54;;;;;;;70.53;42.80;;;-8.80;99.90;;;;;;4990582;28;20206;-74
2022/12/18 04:08:40;;;;;;;72.93;45.30;;;-8.80;99.90;;;;;;4988183;28;20207;-75
2022/12/18 04:11:27;;;;;;;74.72;42.88;;;-8.80;99.90;;;;;;4997930;28;20595;-75
2022/12/18 04:14:13;;;;;;;67.88;41.78;;;-8.70;99.90;;;;;;4988344;28;20222;-75
2022/12/18 04:16:59;;;;;;;65.65;39.67;;;-8.70;99.90;;;;;;4985759;28;20557;-76
2022/12/18 04:19:45;;;;;;;64.07;40.17;;;-8.60;99.90;;;;;;4987356;28;20199;-74
2022/12/18 04:22:31;;;;;;;63.92;41.05;;;-8.50;99.90;;;;;;4987590;28;20203;-75
2022/12/18 04:25:16;;;;;;;62.45;39.75;;;-8.60;99.90;;;;;;4989206;28;20210;-74
2022/12/18 04:28:04;;;;;;;61.70;40.30;;;-8.50;99.90;;;;;;4982232;28;20202;-74
2022/12/18 04:30:49;;;;;;;75.32;45.97;;;-8.50;99.90;;;;;;4990020;28;20271;-74
2022/12/18 04:33:34;;;;;;;62.17;41.47;;;-8.60;99.90;;;;;;4986758;28;20708;-74
2022/12/18 04:36:21;;;;;;;68.78;41.97;;;-8.60;99.90;;;;;;4987515;28;20716;-75
2022/12/18 04:39:06;;;;;;;61.40;40.95;;;-8.60;99.90;;;;;;4998242;28;20345;-74
2022/12/18 04:41:52;;;;;;;76.25;42.10;;;-8.60;99.90;;;;;;4997605;28;20281;-75
2022/12/18 04:44:39;;;;;;;79.13;45.47;;;-8.60;99.90;;;;;;4999666;28;20205;-74
2022/12/18 04:47:25;;;;;;;68.68;44.95;;;-8.70;99.90;;;;;;4986345;28;20793;-74
2022/12/18 04:50:11;;;;;;;68.47;43.83;;;-8.80;99.90;;;;;;4997633;28;20570;-75
2022/12/18 04:52:57;;;;;;;65.68;41.47;;;-8.80;99.90;;;;;;4993734;28;20290;-74
2022/12/18 04:55:43;;;;;;;66.82;42.17;;;-8.80;99.90;;;;;;5001785;28;20567;-75
2022/12/18 04:58:28;;;;;;;66.55;41.70;;;-8.90;99.90;;;;;;4985342;28;20210;-75
2022/12/18 05:01:18;;;;;;;59.08;38.70;;;-8.90;99.90;;;;;;4995739;28;20351;-74
2022/12/18 05:04:03;;;;;;;66.50;39.92;;;-8.90;99.90;;;;;;5001046;28;20314;-75
2022/12/18 05:06:49;;;;;;;65.93;38.53;;;-8.90;99.90;;;;;;4987200;28;20270;-74
2022/12/18 05:09:35;;;;;;;64.63;41.22;;;-8.80;99.90;;;;;;4998976;28;20800;-75
2022/12/18 05:12:25;;;;;;;66.35;43.22;;;-8.60;99.90;;;;;;4993990;28;20289;-75
2022/12/18 05:15:11;;;;;;;60.00;37.30;;;-8.70;99.90;;;;;;4995382;28;20210;-74
2022/12/18 05:17:58;;;;;;;64.25;41.97;;;-8.70;99.90;;;;;;4989739;28;20205;-74
2022/12/18 05:20:44;;;;;;;63.20;39.72;;;-8.80;99.90;;;;;;4991373;28;20224;-74
2022/12/18 05:23:29;;;;;;;59.60;38.80;;;-8.70;99.90;;;;;;4994597;28;20566;-74
2022/12/18 05:26:18;;;;;;;63.30;39.05;;;-8.60;99.90;;;;;;4992148;28;20405;-75
2022/12/18 05:29:03;;;;;;;55.13;36.03;;;-8.60;99.90;;;;;;4990351;28;20329;-74
2022/12/18 05:31:49;;;;;;;58.45;37.40;;;-8.60;99.90;;;;;;4993119;28;20290;-74
2022/12/18 05:34:36;;;;;;;59.28;35.92;;;-8.60;99.90;;;;;;4991311;28;20196;-75
2022/12/18 05:37:22;;;;;;;63.53;38.90;;;-8.60;99.90;;;;;;4987549;28;20222;-75
2022/12/18 05:40:09;;;;;;;64.70;35.53;;;-8.50;99.90;;;;;;4993726;28;20214;-74
2022/12/18 05:42:55;;;;;;;60.92;38.10;;;-8.50;99.90;;;;;;4994484;28;20566;-74
2022/12/18 05:45:41;;;;;;;61.30;39.00;;;-8.60;99.90;;;;;;4983866;28;20207;-74
2022/12/18 05:48:26;;;;;;;72.97;40.25;;;-8.50;99.90;;;;;;5000597;28;20210;-74
2022/12/18 05:51:16;;;;;;;59.42;39.00;;;-8.40;99.90;;;;;;4993063;28;20261;-74
2022/12/18 05:54:02;;;;;;;56.42;36.65;;;-8.40;99.90;;;;;;4997664;28;20358;-74
2022/12/18 05:56:47;;;;;;;48.50;34.25;;;-8.50;99.90;;;;;;4985593;28;20207;-74
2022/12/18 05:59:33;;;;;;;62.50;37.67;;;-8.60;99.90;;;;;;4991370;28;20327;-74
2022/12/18 06:02:20;;;;;;;61.42;38.05;;;-8.80;99.90;;;;;;5002397;28;20226;-74
2022/12/18 06:05:07;;;;;;;66.88;35.70;;;-9.00;99.90;;;;;;4989368;28;20207;-74
2022/12/18 06:07:54;;;;;;;56.05;34.88;;;-9.20;99.90;;;;;;4995767;28;20201;-75
2022/12/18 06:10:41;;;;;;;58.30;35.83;;;-9.10;99.90;;;;;;4994574;28;20218;-74
2022/12/18 06:13:26;;;;;;;66.05;39.38;;;-9.10;99.90;;;;;;4989983;28;20227;-74
2022/12/18 06:16:12;;;;;;;60.35;36.55;;;-9.00;99.90;;;;;;4984549;28;20781;-75
2022/12/18 06:18:58;;;;;;;65.45;38.55;;;-8.90;99.90;;;;;;4988502;28;20206;-75
2022/12/18 06:21:43;;;;;;;53.25;36.40;;;-8.90;99.90;;;;;;4992097;28;20222;-75
2022/12/18 06:24:31;;;;;;;62.80;36.78;;;-8.80;99.90;;;;;;4993336;28;20504;-74
2022/12/18 06:27:16;;;;;;;57.88;36.85;;;-8.80;99.90;;;;;;4991512;28;20206;-74
2022/12/18 06:30:02;;;;;;;55.67;35.35;;;-8.70;99.90;;;;;;4995134;28;20207;-74
2022/12/18 06:32:49;;;;;;;58.05;37.63;;;-8.60;99.90;;;;;;4996272;28;20229;-74
2022/12/18 06:35:35;;;;;;;59.83;36.75;;;-8.50;99.90;;;;;;4981093;28;20211;-74
2022/12/18 06:38:21;;;;;;;54.85;36.00;;;-8.50;99.90;;;;;;4991609;28;20213;-75
2022/12/18 06:41:09;;;;;;;58.80;37.20;;;-8.40;99.90;;;;;;4996675;28;20374;-74
2022/12/18 06:43:55;;;;;;;58.70;36.88;;;-8.30;99.90;;;;;;4986161;28;20762;-74
2022/12/18 06:46:40;;;;;;;53.90;35.78;;;-8.50;99.90;;;;;;4988121;28;20210;-74
2022/12/18 06:49:26;;;;;;;57.67;35.53;;;-8.40;99.90;;;;;;4993418;28;20275;-74
2022/12/18 06:52:12;;;;;;;58.97;36.17;;;-8.60;99.90;;;;;;4998725;28;20255;-74
2022/12/18 06:54:57;;;;;;;56.47;35.15;;;-8.80;99.90;;;;;;4985956;28;20208;-75
2022/12/18 06:57:45;;;;;;;62.65;36.05;;;-8.60;99.90;;;;;;4991603;28;20202;-74
2022/12/18 07:00:30;;;;;;;63.00;35.55;;;-8.60;99.90;;;;;;4999062;28;20579;-74
2022/12/18 07:03:16;;;;;;;64.00;38.53;;;-8.60;99.90;;;;;;4997082;28;20576;-74
2022/12/18 07:06:01;;;;;;;56.47;33.47;;;-8.50;99.90;;;;;;4979542;28;20211;-75
2022/12/18 07:08:48;;;;;;;52.38;33.53;;;-8.50;99.90;;;;;;4995935;28;20202;-75
2022/12/18 07:11:34;;;;;;;59.08;36.88;;;-8.60;99.90;;;;;;4986891;28;20238;-74
2022/12/18 07:14:21;;;;;;;53.17;34.80;;;-8.70;99.90;;;;;;4992021;28;20233;-75
2022/12/18 07:17:06;;;;;;;57.83;35.55;;;-8.70;99.90;;;;;;4985339;28;20331;-75
2022/12/18 07:19:52;;;;;;;64.03;35.67;;;-8.70;99.90;;;;;;4991867;28;20241;-75
2022/12/18 07:22:38;;;;;;;57.75;34.80;;;-8.50;99.90;;;;;;4988976;28;20234;-74
2022/12/18 07:25:23;;;;;;;56.67;33.85;;;-8.60;99.90;;;;;;4983187;28;20215;-75
2022/12/18 07:28:09;;;;;;;57.78;34.78;;;-8.50;99.90;;;;;;4994560;28;20209;-74
2022/12/18 07:30:56;;;;;;;56.85;35.63;;;-8.40;99.90;;;;;;4989671;28;20270;-74
2022/12/18 07:33:42;;;;;;;58.22;34.28;;;-8.30;99.90;;;;;;4993297;28;20214;-75
2022/12/18 07:36:28;;;;;;;63.47;37.15;;;-8.30;99.90;;;;;;4990384;28;20218;-74
2022/12/18 07:39:14;;;;;;;53.45;34.53;;;-8.30;99.90;;;;;;4998421;28;20205;-75
2022/12/18 07:45:05;;;;;;;63.10;38.75;;;-8.30;99.90;;;;;;4984624;28;20218;-74
2022/12/18 07:47:52;;;;;;;69.40;40.53;;;-8.30;99.90;;;;;;4988571;28;20211;-74
2022/12/18 07:50:37;;;;;;;69.57;42.20;;;-8.30;99.90;;;;;;4994261;28;20226;-75
2022/12/18 07:53:23;;;;;;;60.08;39.13;;;-8.30;99.90;;;;;;4994864;28;20735;-74
2022/12/18 07:56:10;;;;;;;74.13;44.75;;;-8.40;99.90;;;;;;4989428;28;20314;-74
2022/12/18 07:58:56;;;;;;;81.90;47.33;;;-8.40;99.90;;;;;;4992549;28;20226;-75
2022/12/18 08:01:42;;;;;;;83.72;46.95;;;-8.30;99.90;;;;;;4988336;28;20278;-75
2022/12/18 08:04:29;;;;;;;95.15;52.38;;;-8.30;99.90;;;;;;4988291;28;20753;-75
2022/12/18 08:07:15;;;;;;;88.90;48.17;;;-8.30;99.90;;;;;;4994919;28;20202;-74
2022/12/18 08:10:01;;;;;;;75.72;43.55;;;-8.20;99.90;;;;;;4994415;28;20209;-74
2022/12/18 08:12:46;;;;;;;66.00;40.65;;;-8.30;99.90;;;;;;4984820;28;20226;-75
2022/12/18 08:15:32;;;;;;;64.90;38.70;;;-8.20;99.90;;;;;;4992713;28;20207;-75
2022/12/18 08:18:18;;;;;;;59.45;37.95;;;-8.20;99.90;;;;;;4991802;28;20650;-75
2022/12/18 08:21:13;;;;;;;56.45;36.20;;;-8.10;99.90;;;;;;4995372;28;20225;-75
2022/12/18 08:24:01;;;;;;;56.70;35.65;;;-7.90;99.90;;;;;;4986410;28;20255;-75
2022/12/18 08:26:46;;;;;;;54.45;35.50;;;-7.90;99.90;;;;;;4993208;28;20687;-75
2022/12/18 08:29:33;;;;;;;57.30;34.92;;;-7.90;99.90;;;;;;4985920;28;20338;-75
2022/12/18 08:32:19;;;;;;;56.55;35.72;;;-7.80;99.90;;;;;;4993437;28;20229;-74
2022/12/18 08:35:05;;;;;;;55.17;36.20;;;-7.70;99.90;;;;;;4990846;28;20294;-75
2022/12/18 08:37:53;;;;;;;69.53;40.92;;;-7.60;99.90;;;;;;4990816;28;20203;-74
2022/12/18 08:40:38;;;;;;;65.72;41.05;;;-7.70;99.90;;;;;;4993897;28;20242;-75
2022/12/18 08:46:31;;;;;;;72.32;41.85;;;-7.50;99.90;;;;;;4993019;28;20207;-75
2022/12/18 08:49:17;;;;;;;68.28;43.30;;;-7.60;99.90;;;;;;4989667;28;20210;-75
2022/12/18 08:52:03;;;;;;;72.22;41.60;;;-7.60;99.90;;;;;;4987572;28;20327;-75
2022/12/18 08:54:50;;;;;;;80.53;49.08;;;-7.50;99.90;;;;;;4982025;28;20300;-74
2022/12/18 08:57:36;;;;;;;81.10;44.95;;;-7.40;99.90;;;;;;4988916;28;20629;-75
2022/12/18 09:00:22;;;;;;;72.78;45.20;;;-7.30;99.90;;;;;;4992603;28;20235;-75
2022/12/18 09:03:12;;;;;;;74.55;44.22;;;-7.40;99.90;;;;;;4982041;28;20701;-75
2022/12/18 09:05:58;;;;;;;75.25;45.08;;;-7.30;99.90;;;;;;4997452;28;20676;-75
2022/12/18 09:08:43;;;;;;;67.68;42.08;;;-7.40;99.90;;;;;;4993259;28;20227;-74
2022/12/18 09:11:31;;;;;;;64.60;38.75;;;-7.30;99.90;;;;;;4997871;28;20251;-75
2022/12/18 09:14:16;;;;;;;69.97;42.15;;;-7.20;99.90;;;;;;4983740;28;20230;-75
2022/12/18 09:17:02;;;;;;;66.50;42.33;;;-7.10;99.90;;;;;;4986235;28;20220;-75
2022/12/18 09:19:47;;;;;;;66.95;41.92;;;-7.00;99.90;;;;;;4991972;28;20203;-74
2022/12/18 09:22:33;;;;;;;69.55;41.42;;;-6.90;99.90;;;;;;4983551;28;20211;-75
2022/12/18 09:25:19;;;;;;;68.40;44.15;;;-6.80;99.90;;;;;;4990793;28;20202;-75
2022/12/18 09:28:10;;;;;;;73.05;43.85;;;-6.70;99.90;;;;;;4999150;28;20201;-75
2022/12/18 09:30:55;;;;;;;75.28;45.28;;;-6.70;99.90;;;;;;4998508;28;20242;-75
2022/12/18 09:33:41;;;;;;;72.93;44.47;;;-6.70;99.90;;;;;;4981582;28;20246;-74
2022/12/18 09:36:27;;;;;;;84.13;50.58;;;-6.70;99.90;;;;;;4982071;28;20230;-75
2022/12/18 09:39:12;;;;;;;78.70;46.60;;;-6.50;99.90;;;;;;4999423;28;20229;-75
2022/12/18 09:41:59;;;;;;;85.80;47.35;;;-6.40;99.90;;;;;;4995975;28;20228;-74
2022/12/18 09:44:50;;;;;;;81.75;47.53;;;-6.30;99.90;;;;;;4995861;28;20569;-75
2022/12/18 09:47:40;;;;;;;78.57;46.83;;;-6.20;99.90;;;;;;4992546;28;20201;-74
2022/12/18 09:50:29;;;;;;;76.47;46.33;;;-6.20;99.90;;;;;;5002504;28;20341;-74
2022/12/18 09:53:20;;;;;;;73.30;46.25;;;-6.00;99.90;;;;;;4983704;28;20207;-74
2022/12/18 09:56:07;;;;;;;75.88;45.60;;;-5.80;99.90;;;;;;4993434;28;20206;-74
2022/12/18 09:58:59;;;;;;;85.13;46.30;;;-5.60;99.90;;;;;;4994980;28;20293;-74
2022/12/18 10:01:46;;;;;;;66.68;41.63;;;-5.40;99.90;;;;;;4991174;28;20274;-74
2022/12/18 10:04:32;;;;;;;67.90;41.05;;;-5.20;99.90;;;;;;4991844;28;20315;-75
2022/12/18 10:07:23;;;;;;;71.43;43.35;;;-5.00;99.90;;;;;;4989490;28;20262;-73
2022/12/18 10:10:19;;;;;;;70.72;41.15;;;-4.80;99.90;;;;;;4992748;28;20206;-73
2022/12/18 10:13:20;;;;;;;72.75;43.30;;;-4.60;99.90;;;;;;4985601;28;20228;-74
2022/12/18 10:16:13;;;;;;;70.60;40.83;;;-4.50;99.90;;;;;;4986468;28;20206;-73
2022/12/18 10:19:22;;;;;;;69.53;41.33;;;-4.30;99.90;;;;;;4991319;28;20608;-75
2022/12/18 10:22:19;;;;;;;67.22;40.35;;;-4.20;99.90;;;;;;4989981;28;20223;-75
2022/12/18 10:25:15;;;;;;;63.92;37.88;;;-4.00;99.90;;;;;;4988470;28;20203;-75
2022/12/18 10:28:11;;;;;;;68.65;39.38;;;-3.70;99.90;;;;;;4991847;28;20767;-74
2022/12/18 10:30:57;;;;;;;64.70;35.97;;;-3.20;99.90;;;;;;4988981;28;20605;-74
2022/12/18 10:33:43;;;;;;;58.00;35.60;;;-2.60;99.90;;;;;;4994331;28;20774;-75
2022/12/18 10:36:30;;;;;;;57.13;33.35;;;-2.20;99.90;;;;;;4985820;28;20222;-74
2022/12/18 10:39:17;;;;;;;54.05;30.83;;;-1.80;99.90;;;;;;4993871;28;20558;-74
2022/12/18 10:42:16;;;;;;;57.42;30.65;;;-1.60;99.90;;;;;;4982708;28;20235;-74
2022/12/18 10:45:06;;;;;;;56.28;31.52;;;-1.40;99.90;;;;;;4995668;28;20804;-74
2022/12/18 10:47:52;;;;;;;59.25;32.13;;;-1.20;99.90;;;;;;4991573;28;20243;-75
2022/12/18 10:50:38;;;;;;;53.47;29.75;;;-1.10;99.90;;;;;;4991451;28;20565;-75
2022/12/18 10:53:27;;;;;;;53.42;30.85;;;-1.00;99.90;;;;;;4997493;28;20212;-75
2022/12/18 10:56:13;;;;;;;53.33;30.90;;;-1.00;99.90;;;;;;4995844;28;20194;-75
2022/12/18 10:59:01;;;;;;;52.70;31.33;;;-0.90;99.90;;;;;;4989554;28;20293;-74
2022/12/18 11:01:49;;;;;;;53.00;30.77;;;-0.90;99.90;;;;;;4979635;28;20351;-75
2022/12/18 11:04:35;;;;;;;51.17;30.67;;;-0.90;99.90;;;;;;4996861;28;20211;-75
2022/12/18 11:07:21;;;;;;;45.45;26.63;;;-0.90;99.90;;;;;;4988731;28;20206;-73
2022/12/18 11:10:17;;;;;;;52.30;29.95;;;-0.90;99.90;;;;;;4992078;28;20220;-74
2022/12/18 11:13:19;;;;;;;53.95;31.77;;;-0.90;99.90;;;;;;4987661;28;20215;-73
2022/12/18 11:16:05;;;;;;;47.90;28.20;;;-0.90;99.90;;;;;;4987144;28;20282;-75
2022/12/18 11:18:51;;;;;;;53.45;29.65;;;-0.80;99.90;;;;;;4994557;28;20739;-74
2022/12/18 11:21:41;;;;;;;58.45;30.70;;;-0.80;99.90;;;;;;4975513;28;20227;-74
2022/12/18 11:24:31;;;;;;;50.00;27.75;;;-0.80;99.90;;;;;;4994386;28;20196;-74
2022/12/18 11:27:19;;;;;;;47.83;27.65;;;-0.70;99.90;;;;;;5002871;28;20206;-74
2022/12/18 11:30:10;;;;;;;52.10;28.02;;;-0.70;99.90;;;;;;4992123;28;20571;-75
2022/12/18 11:33:00;;;;;;;49.05;27.10;;;-0.80;99.90;;;;;;4980887;28;20207;-74
2022/12/18 11:35:50;;;;;;;51.97;26.88;;;-0.90;99.90;;;;;;4998015;28;20226;-75
2022/12/18 11:38:39;;;;;;;50.20;26.40;;;-0.90;99.90;;;;;;4992316;28;20206;-74
2022/12/18 11:44:39;;;;;;;50.90;28.38;;;-1.00;99.90;;;;;;4989523;28;20740;-75
2022/12/18 11:47:32;;;;;;;54.47;28.77;;;-0.90;99.90;;;;;;4998006;28;20207;-75
2022/12/18 11:50:21;;;;;;;47.38;26.48;;;-1.00;99.90;;;;;;4982338;28;20351;-74
2022/12/18 11:53:12;;;;;;;50.00;28.48;;;-0.90;99.90;;;;;;4987425;28;20326;-75
2022/12/18 11:56:27;;;;;;;43.28;24.70;;;-0.90;99.90;;;;;;4979570;28;20751;-75
2022/12/18 11:59:19;;;;;;;48.47;27.70;;;-0.90;99.90;;;;;;4993019;28;20566;-75
2022/12/18 12:02:22;;;;;;;51.40;27.25;;;-0.80;99.90;;;;;;4980016;28;20227;-75
2022/12/18 12:05:25;;;;;;;47.65;28.30;;;-0.70;99.90;;;;;;4984898;28;20285;-75
2022/12/18 12:08:18;;;;;;;53.55;28.25;;;-0.60;99.90;;;;;;4984612;28;20202;-75
2022/12/18 12:11:12;;;;;;;41.97;24.40;;;-0.60;99.90;;;;;;4984897;28;20262;-74
2022/12/18 12:14:15;;;;;;;48.78;26.50;;;-0.60;99.90;;;;;;4993123;28;20756;-73
2022/12/18 12:17:10;;;;;;;45.80;25.70;;;-0.50;99.90;;;;;;4994178;28;20213;-75
2022/12/18 12:20:03;;;;;;;48.90;27.25;;;-0.50;99.90;;;;;;4988933;28;20206;-71
2022/12/18 12:22:57;;;;;;;54.47;26.98;;;-0.40;99.90;;;;;;4990739;28;20235;-72
2022/12/18 12:25:49;;;;;;;48.55;25.33;;;-0.40;99.90;;;;;;4983009;28;20585;-73
2022/12/18 12:28:52;;;;;;;50.92;26.75;;;-0.30;99.90;;;;;;4990439;28;20344;-73
2022/12/18 12:31:51;;;;;;;49.22;27.30;;;-0.20;99.90;;;;;;4980509;28;20646;-75
2022/12/18 12:34:48;;;;;;;52.50;27.02;;;-0.10;99.90;;;;;;4990844;28;20706;-74
2022/12/18 12:37:45;;;;;;;46.65;27.48;;;0.10;99.90;;;;;;4991095;28;20569;-74
2022/12/18 12:40:35;;;;;;;46.00;25.38;;;0.30;99.90;;;;;;4978625;28;20234;-75
2022/12/18 12:43:27;;;;;;;49.75;27.40;;;0.40;99.90;;;;;;4992672;28;20234;-74
2022/12/18 12:46:16;;;;;;;44.97;25.90;;;0.60;99.90;;;;;;4991956;28;20452;-75
2022/12/18 12:49:05;;;;;;;49.53;23.60;;;0.70;99.90;;;;;;4988006;28;20218;-74
2022/12/18 12:52:00;;;;;;;44.15;23.65;;;0.50;99.90;;;;;;4985457;28;20318;-74
2022/12/18 12:54:48;;;;;;;43.47;24.35;;;0.50;99.90;;;;;;4993742;28;20617;-74
2022/12/18 12:57:38;;;;;;;47.28;24.73;;;0.60;99.90;;;;;;4980814;28;20325;-74
2022/12/18 13:00:26;;;;;;;46.05;23.50;;;0.60;99.90;;;;;;4988079;28;20253;-74
2022/12/18 13:03:22;;;;;;;45.88;25.27;;;0.60;99.90;;;;;;4992252;28;20296;-74
2022/12/18 13:06:14;;;;;;;50.97;26.33;;;0.50;99.90;;;;;;4978178;28;20204;-74
2022/12/18 13:09:01;;;;;;;44.65;23.85;;;0.40;99.90;;;;;;4995705;28;20225;-74
2022/12/18 13:14:52;;;;;;;50.75;26.08;;;0.30;99.90;;;;;;4985657;28;20262;-74
2022/12/18 13:17:38;;;;;;;46.55;25.00;;;0.10;99.90;;;;;;4994439;28;20596;-74
2022/12/18 13:20:34;;;;;;;46.33;26.90;;;0.00;99.90;;;;;;4984279;28;20243;-74
2022/12/18 13:23:38;;;;;;;54.92;28.05;;;-0.10;99.90;;;;;;4995129;28;20199;-73
2022/12/18 13:26:34;;;;;;;45.33;25.08;;;-0.20;99.90;;;;;;4987143;28;20344;-74
2022/12/18 13:29:43;;;;;;;49.97;26.10;;;-0.40;99.90;;;;;;4994764;28;20215;-74
2022/12/18 13:32:29;;;;;;;49.72;26.98;;;-0.40;99.90;;;;;;4989172;28;20214;-74
2022/12/18 13:35:40;;;;;;;54.47;29.35;;;-0.40;99.90;;;;;;4995579;28;20234;-74
2022/12/18 13:38:35;;;;;;;50.00;27.33;;;-0.30;99.90;;;;;;4987335;28;20209;-74
2022/12/18 13:41:27;;;;;;;49.70;26.40;;;-0.30;99.90;;;;;;4980565;28;20231;-74
2022/12/18 13:44:22;;;;;;;49.33;26.33;;;-0.30;99.90;;;;;;4990963;28;20206;-74
2022/12/18 13:47:29;;;;;;;51.50;27.58;;;-0.30;99.90;;;;;;4981031;28;20639;-74
2022/12/18 13:50:29;;;;;;;49.05;27.30;;;-0.40;99.90;;;;;;4978960;28;20218;-74
2022/12/18 13:53:22;;;;;;;47.45;26.80;;;-0.40;99.90;;;;;;4984043;28;20793;-72
2022/12/18 13:56:07;;;;;;;52.97;26.38;;;-0.40;99.90;;;;;;4990663;28;20242;-72
2022/12/18 13:59:15;;;;;;;49.30;25.58;;;-0.40;99.90;;;;;;4982361;28;21378;-73
2022/12/18 14:02:08;;;;;;;55.75;25.67;;;-0.40;99.90;;;;;;4987748;28;20333;-75
2022/12/18 14:04:56;;;;;;;47.67;25.17;;;-0.40;99.90;;;;;;4988494;28;20199;-74
2022/12/18 14:07:42;;;;;;;53.65;25.90;;;-0.60;99.90;;;;;;4986561;28;20246;-75
2022/12/18 14:10:27;;;;;;;50.55;26.45;;;-0.70;99.90;;;;;;4978685;28;20235;-74
2022/12/18 14:13:20;;;;;;;50.63;26.10;;;-0.70;99.90;;;;;;4991390;28;20203;-74
2022/12/18 14:16:08;;;;;;;50.85;26.60;;;-0.70;99.90;;;;;;4995178;28;20227;-74
2022/12/18 14:18:55;;;;;;;45.50;25.35;;;-0.60;99.90;;;;;;4988852;28;20211;-74
2022/12/18 14:21:47;;;;;;;50.33;25.50;;;-0.70;99.90;;;;;;4993796;28;20230;-74
2022/12/18 14:24:33;;;;;;;44.60;23.90;;;-0.70;99.90;;;;;;4989746;28;20207;-74
2022/12/18 14:27:24;;;;;;;44.40;24.55;;;-0.60;99.90;;;;;;4990201;28;20257;-74
2022/12/18 14:30:28;;;;;;;50.00;27.83;;;-0.70;99.90;;;;;;4975943;28;20215;-74
2022/12/18 14:33:16;;;;;;;55.13;28.45;;;-0.70;99.90;;;;;;4990672;28;20210;-74
2022/12/18 14:36:05;;;;;;;53.15;26.83;;;-0.80;99.90;;;;;;4983124;28;20238;-74
2022/12/18 14:38:54;;;;;;;47.35;24.98;;;-0.80;99.90;;;;;;4981936;28;20802;-74